Hughsonville, New York
Current Conditions -  °F | °C
As of 10:53 AM on Sunday 25 Jan 2015 (Local Time) from KPOU Reporting Station
Clear Clear  
Wind Chill: 29°   Ceiling: Unl
Heat Index: 37°   Visibility: 10mi
Dew Point: 16°   Wind: 12mph
Humidity: 42%   Direction: 290°WNW
Pressure: 29.73"   Gusts: 25mph
Location:  41.58°N, 73.93°W
Report Text: KPOU 251553Z 29010G22KT 10SM CLR 03/M09 A2973 RMK AO2 SLP065 T00281089
Loading
Personal Weather Stations






























Interactive Weather Map New forecast layout! Learn more

10-Day Weather Forecast

Advertisements
Track Severe Weather on mobile